sensor_id;sensor_type;location;lat;lon;timestamp;temperature;humidity
56137;DHT22;42008;52.934;5.884;2023-09-19T00:00:45;18.90;99.90
56137;DHT22;42008;52.934;5.884;2023-09-19T00:03:12;19.60;99.90
56137;DHT22;42008;52.934;5.884;2023-09-19T00:05:38;18.50;99.90
56137;DHT22;42008;52.934;5.884;2023-09-19T00:08:05;18.50;99.90
56137;DHT22;42008;52.934;5.884;2023-09-19T00:10:33;18.30;99.90
56137;DHT22;42008;52.934;5.884;2023-09-19T00:13:01;18.50;99.90
56137;DHT22;42008;52.934;5.884;2023-09-19T00:15:37;18.70;99.90
56137;DHT22;42008;52.934;5.884;2023-09-19T00:18:03;18.10;99.90
56137;DHT22;42008;52.934;5.884;2023-09-19T00:20:31;17.70;99.90
56137;DHT22;42008;52.934;5.884;2023-09-19T00:22:57;18.30;99.90
56137;DHT22;42008;52.934;5.884;2023-09-19T00:25:28;18.60;99.90
56137;DHT22;42008;52.934;5.884;2023-09-19T00:27:54;18.50;99.90
56137;DHT22;42008;52.934;5.884;2023-09-19T00:30:21;18.30;99.90
56137;DHT22;42008;52.934;5.884;2023-09-19T00:32:50;18.20;99.90
56137;DHT22;42008;52.934;5.884;2023-09-19T00:35:23;18.50;99.90
56137;DHT22;42008;52.934;5.884;2023-09-19T00:37:52;18.20;99.90
56137;DHT22;42008;52.934;5.884;2023-09-19T00:40:17;18.20;99.90
56137;DHT22;42008;52.934;5.884;2023-09-19T00:42:44;18.60;56.50
56137;DHT22;42008;52.934;5.884;2023-09-19T00:45:12;17.80;1.00
56137;DHT22;42008;52.934;5.884;2023-09-19T00:47:39;18.10;1.00
56137;DHT22;42008;52.934;5.884;2023-09-19T00:50:06;18.00;1.00
56137;DHT22;42008;52.934;5.884;2023-09-19T00:52:39;17.50;99.90
56137;DHT22;42008;52.934;5.884;2023-09-19T00:55:09;18.50;99.90
56137;DHT22;42008;52.934;5.884;2023-09-19T00:57:36;18.10;99.90
56137;DHT22;42008;52.934;5.884;2023-09-19T01:00:04;18.20;99.90
56137;DHT22;42008;52.934;5.884;2023-09-19T01:02:34;17.70;99.90
56137;DHT22;42008;52.934;5.884;2023-09-19T01:05:00;18.00;99.90
56137;DHT22;42008;52.934;5.884;2023-09-19T01:07:30;18.20;99.90
56137;DHT22;42008;52.934;5.884;2023-09-19T01:10:03;18.00;99.90
56137;DHT22;42008;52.934;5.884;2023-09-19T01:15:45;19.20;46.90
56137;DHT22;42008;52.934;5.884;2023-09-19T01:29:46;18.00;99.90
56137;DHT22;42008;52.934;5.884;2023-09-19T01:32:15;18.60;99.90
56137;DHT22;42008;52.934;5.884;2023-09-19T01:34:49;19.30;1.00
56137;DHT22;42008;52.934;5.884;2023-09-19T01:37:16;19.30;1.00
56137;DHT22;42008;52.934;5.884;2023-09-19T01:40:14;18.50;1.00
56137;DHT22;42008;52.934;5.884;2023-09-19T01:43:02;17.30;1.00
56137;DHT22;42008;52.934;5.884;2023-09-19T01:45:44;17.80;1.00
56137;DHT22;42008;52.934;5.884;2023-09-19T01:48:25;18.50;99.90
56137;DHT22;42008;52.934;5.884;2023-09-19T01:51:08;18.80;99.90
56137;DHT22;42008;52.934;5.884;2023-09-19T01:53:45;18.50;99.90
56137;DHT22;42008;52.934;5.884;2023-09-19T01:56:23;17.90;99.90
56137;DHT22;42008;52.934;5.884;2023-09-19T01:58:53;18.50;99.90
56137;DHT22;42008;52.934;5.884;2023-09-19T02:01:24;18.60;99.90
56137;DHT22;42008;52.934;5.884;2023-09-19T02:03:50;19.70;1.00
56137;DHT22;42008;52.934;5.884;2023-09-19T02:06:17;18.70;1.00
56137;DHT22;42008;52.934;5.884;2023-09-19T02:08:44;19.00;1.00
56137;DHT22;42008;52.934;5.884;2023-09-19T02:11:11;18.80;1.00
56137;DHT22;42008;52.934;5.884;2023-09-19T02:13:36;18.50;99.90
56137;DHT22;42008;52.934;5.884;2023-09-19T02:16:03;18.40;1.00
56137;DHT22;42008;52.934;5.884;2023-09-19T02:18:30;17.90;1.00
56137;DHT22;42008;52.934;5.884;2023-09-19T02:20:56;18.80;99.90
56137;DHT22;42008;52.934;5.884;2023-09-19T02:23:24;18.90;1.00
56137;DHT22;42008;52.934;5.884;2023-09-19T02:25:56;18.80;1.00
56137;DHT22;42008;52.934;5.884;2023-09-19T02:28:26;18.00;1.00
56137;DHT22;42008;52.934;5.884;2023-09-19T02:30:56;19.10;1.00
56137;DHT22;42008;52.934;5.884;2023-09-19T02:33:22;18.60;1.00
56137;DHT22;42008;52.934;5.884;2023-09-19T02:35:47;18.40;99.90
56137;DHT22;42008;52.934;5.884;2023-09-19T02:38:13;18.50;88.80
56137;DHT22;42008;52.934;5.884;2023-09-19T02:40:39;18.60;99.90
56137;DHT22;42008;52.934;5.884;2023-09-19T02:43:05;18.40;99.90
56137;DHT22;42008;52.934;5.884;2023-09-19T02:45:31;18.40;99.90
56137;DHT22;42008;52.934;5.884;2023-09-19T02:47:57;18.40;99.90
56137;DHT22;42008;52.934;5.884;2023-09-19T02:50:23;18.30;99.90
56137;DHT22;42008;52.934;5.884;2023-09-19T02:52:49;18.50;71.80
56137;DHT22;42008;52.934;5.884;2023-09-19T02:55:16;18.50;99.90
56137;DHT22;42008;52.934;5.884;2023-09-19T02:57:51;18.30;99.90
56137;DHT22;42008;52.934;5.884;2023-09-19T03:00:18;17.90;99.90
56137;DHT22;42008;52.934;5.884;2023-09-19T03:02:52;18.30;99.90
56137;DHT22;42008;52.934;5.884;2023-09-19T03:05:19;19.10;99.90
56137;DHT22;42008;52.934;5.884;2023-09-19T03:07:47;18.40;99.90
56137;DHT22;42008;52.934;5.884;2023-09-19T03:10:19;18.00;99.90
56137;DHT22;42008;52.934;5.884;2023-09-19T03:12:45;19.30;99.90
56137;DHT22;42008;52.934;5.884;2023-09-19T03:15:11;18.50;1.00
56137;DHT22;42008;52.934;5.884;2023-09-19T03:17:37;19.70;69.00
56137;DHT22;42008;52.934;5.884;2023-09-19T03:20:03;18.50;99.90
56137;DHT22;42008;52.934;5.884;2023-09-19T03:22:35;17.90;99.90
56137;DHT22;42008;52.934;5.884;2023-09-19T03:25:00;18.80;99.90
56137;DHT22;42008;52.934;5.884;2023-09-19T03:27:26;18.60;99.90
56137;DHT22;42008;52.934;5.884;2023-09-19T03:29:52;18.50;99.90
56137;DHT22;42008;52.934;5.884;2023-09-19T03:32:19;18.50;99.90
56137;DHT22;42008;52.934;5.884;2023-09-19T03:34:44;18.30;99.90
56137;DHT22;42008;52.934;5.884;2023-09-19T03:37:10;18.50;99.90
56137;DHT22;42008;52.934;5.884;2023-09-19T03:39:36;18.50;99.90
56137;DHT22;42008;52.934;5.884;2023-09-19T03:42:02;18.30;99.90
56137;DHT22;42008;52.934;5.884;2023-09-19T03:44:29;19.30;99.90
56137;DHT22;42008;52.934;5.884;2023-09-19T03:46:55;18.70;1.00
56137;DHT22;42008;52.934;5.884;2023-09-19T03:49:22;18.80;1.00
56137;DHT22;42008;52.934;5.884;2023-09-19T03:51:47;18.70;99.90
56137;DHT22;42008;52.934;5.884;2023-09-19T03:54:13;18.80;99.90
56137;DHT22;42008;52.934;5.884;2023-09-19T03:56:38;18.30;1.00
56137;DHT22;42008;52.934;5.884;2023-09-19T03:59:04;18.40;1.00
56137;DHT22;42008;52.934;5.884;2023-09-19T04:01:30;18.40;1.00
56137;DHT22;42008;52.934;5.884;2023-09-19T04:03:58;18.20;48.20
56137;DHT22;42008;52.934;5.884;2023-09-19T04:06:23;18.30;99.20
56137;DHT22;42008;52.934;5.884;2023-09-19T04:08:49;18.40;99.90
56137;DHT22;42008;52.934;5.884;2023-09-19T04:11:15;18.50;99.90
56137;DHT22;42008;52.934;5.884;2023-09-19T04:13:40;18.50;99.90
56137;DHT22;42008;52.934;5.884;2023-09-19T04:16:06;18.10;99.90
56137;DHT22;42008;52.934;5.884;2023-09-19T04:18:34;18.50;99.90
56137;DHT22;42008;52.934;5.884;2023-09-19T04:21:03;18.70;99.90
56137;DHT22;42008;52.934;5.884;2023-09-19T04:23:31;18.40;99.90
56137;DHT22;42008;52.934;5.884;2023-09-19T04:25:57;18.40;99.90
56137;DHT22;42008;52.934;5.884;2023-09-19T04:28:23;18.80;1.00
56137;DHT22;42008;52.934;5.884;2023-09-19T04:30:49;19.00;1.00
56137;DHT22;42008;52.934;5.884;2023-09-19T04:33:15;18.30;1.00
56137;DHT22;42008;52.934;5.884;2023-09-19T04:35:41;18.60;1.00
56137;DHT22;42008;52.934;5.884;2023-09-19T04:38:08;18.50;1.00
56137;DHT22;42008;52.934;5.884;2023-09-19T04:40:34;18.40;1.00
56137;DHT22;42008;52.934;5.884;2023-09-19T04:43:00;18.10;1.00
56137;DHT22;42008;52.934;5.884;2023-09-19T04:45:27;18.20;1.00
56137;DHT22;42008;52.934;5.884;2023-09-19T04:47:53;18.00;1.00
56137;DHT22;42008;52.934;5.884;2023-09-19T04:50:19;18.20;1.00
56137;DHT22;42008;52.934;5.884;2023-09-19T04:52:49;18.30;1.00
56137;DHT22;42008;52.934;5.884;2023-09-19T04:55:19;18.40;1.00
56137;DHT22;42008;52.934;5.884;2023-09-19T04:57:49;17.80;1.00
56137;DHT22;42008;52.934;5.884;2023-09-19T05:00:17;17.70;1.00
56137;DHT22;42008;52.934;5.884;2023-09-19T05:02:45;19.10;1.00
56137;DHT22;42008;52.934;5.884;2023-09-19T05:05:11;18.40;1.00
56137;DHT22;42008;52.934;5.884;2023-09-19T05:07:39;18.80;99.90
56137;DHT22;42008;52.934;5.884;2023-09-19T05:10:06;18.30;99.90
56137;DHT22;42008;52.934;5.884;2023-09-19T05:12:36;17.80;99.90
56137;DHT22;42008;52.934;5.884;2023-09-19T05:15:05;17.80;99.90
56137;DHT22;42008;52.934;5.884;2023-09-19T05:17:35;17.90;99.90
56137;DHT22;42008;52.934;5.884;2023-09-19T05:20:01;18.50;99.90
56137;DHT22;42008;52.934;5.884;2023-09-19T05:22:40;18.60;21.10
56137;DHT22;42008;52.934;5.884;2023-09-19T05:25:07;18.50;99.90
56137;DHT22;42008;52.934;5.884;2023-09-19T05:27:32;17.90;1.00
56137;DHT22;42008;52.934;5.884;2023-09-19T05:29:59;18.40;1.00
56137;DHT22;42008;52.934;5.884;2023-09-19T05:32:25;19.20;99.90
56137;DHT22;42008;52.934;5.884;2023-09-19T05:34:50;18.60;99.90
56137;DHT22;42008;52.934;5.884;2023-09-19T05:37:18;18.60;99.90
56137;DHT22;42008;52.934;5.884;2023-09-19T05:39:44;18.40;99.90
56137;DHT22;42008;52.934;5.884;2023-09-19T05:42:09;18.60;99.90
56137;DHT22;42008;52.934;5.884;2023-09-19T05:44:35;18.20;1.00
56137;DHT22;42008;52.934;5.884;2023-09-19T05:47:02;17.80;1.00
56137;DHT22;42008;52.934;5.884;2023-09-19T05:49:28;17.80;99.90
56137;DHT22;42008;52.934;5.884;2023-09-19T05:51:53;18.50;99.90
56137;DHT22;42008;52.934;5.884;2023-09-19T05:54:20;18.40;99.90
56137;DHT22;42008;52.934;5.884;2023-09-19T05:56:46;18.60;1.00
56137;DHT22;42008;52.934;5.884;2023-09-19T05:59:12;18.50;1.00
56137;DHT22;42008;52.934;5.884;2023-09-19T06:01:42;18.60;36.30
56137;DHT22;42008;52.934;5.884;2023-09-19T06:04:07;18.50;99.90
56137;DHT22;42008;52.934;5.884;2023-09-19T06:06:33;18.40;1.00
56137;DHT22;42008;52.934;5.884;2023-09-19T06:09:04;18.50;21.40
56137;DHT22;42008;52.934;5.884;2023-09-19T06:11:31;18.50;1.00
56137;DHT22;42008;52.934;5.884;2023-09-19T06:14:03;19.90;98.30
56137;DHT22;42008;52.934;5.884;2023-09-19T06:16:29;19.30;99.90
56137;DHT22;42008;52.934;5.884;2023-09-19T06:18:55;18.50;99.90
56137;DHT22;42008;52.934;5.884;2023-09-19T06:21:24;19.00;1.00
56137;DHT22;42008;52.934;5.884;2023-09-19T06:23:49;18.80;1.00
56137;DHT22;42008;52.934;5.884;2023-09-19T06:26:15;18.50;1.00
56137;DHT22;42008;52.934;5.884;2023-09-19T06:28:41;19.00;1.00
56137;DHT22;42008;52.934;5.884;2023-09-19T06:31:08;18.60;99.90
56137;DHT22;42008;52.934;5.884;2023-09-19T06:33:36;18.70;1.00
56137;DHT22;42008;52.934;5.884;2023-09-19T06:36:05;18.80;99.90
56137;DHT22;42008;52.934;5.884;2023-09-19T06:38:30;18.10;1.00
56137;DHT22;42008;52.934;5.884;2023-09-19T06:40:56;19.00;1.00
56137;DHT22;42008;52.934;5.884;2023-09-19T06:43:23;19.80;1.00
56137;DHT22;42008;52.934;5.884;2023-09-19T06:45:49;19.10;99.90
56137;DHT22;42008;52.934;5.884;2023-09-19T06:48:17;19.20;99.90
56137;DHT22;42008;52.934;5.884;2023-09-19T06:50:43;18.90;99.90
56137;DHT22;42008;52.934;5.884;2023-09-19T06:53:10;20.30;1.00
56137;DHT22;42008;52.934;5.884;2023-09-19T06:55:35;19.00;99.90
56137;DHT22;42008;52.934;5.884;2023-09-19T06:58:02;18.90;99.90
56137;DHT22;42008;52.934;5.884;2023-09-19T07:00:28;19.90;99.90
56137;DHT22;42008;52.934;5.884;2023-09-19T07:03:01;18.90;64.80
56137;DHT22;42008;52.934;5.884;2023-09-19T07:05:29;20.00;1.00
56137;DHT22;42008;52.934;5.884;2023-09-19T07:07:56;20.20;99.90
56137;DHT22;42008;52.934;5.884;2023-09-19T07:10:25;20.30;99.90
56137;DHT22;42008;52.934;5.884;2023-09-19T07:13:00;20.40;99.90
56137;DHT22;42008;52.934;5.884;2023-09-19T07:15:29;20.10;1.00
56137;DHT22;42008;52.934;5.884;2023-09-19T07:17:56;20.70;99.90
56137;DHT22;42008;52.934;5.884;2023-09-19T07:20:23;20.60;1.00
56137;DHT22;42008;52.934;5.884;2023-09-19T07:22:52;19.20;1.00
56137;DHT22;42008;52.934;5.884;2023-09-19T07:25:20;21.00;99.90
56137;DHT22;42008;52.934;5.884;2023-09-19T07:27:46;20.40;99.90
56137;DHT22;42008;52.934;5.884;2023-09-19T07:30:11;19.10;99.90
56137;DHT22;42008;52.934;5.884;2023-09-19T07:32:38;19.70;1.00
56137;DHT22;42008;52.934;5.884;2023-09-19T07:35:04;18.90;1.00
56137;DHT22;42008;52.934;5.884;2023-09-19T07:37:33;19.70;6.70
56137;DHT22;42008;52.934;5.884;2023-09-19T07:40:02;18.90;92.50
56137;DHT22;42008;52.934;5.884;2023-09-19T07:42:35;18.80;99.90
56137;DHT22;42008;52.934;5.884;2023-09-19T07:45:02;18.80;99.90
56137;DHT22;42008;52.934;5.884;2023-09-19T07:47:28;19.80;99.90
56137;DHT22;42008;52.934;5.884;2023-09-19T07:49:55;18.80;99.90
56137;DHT22;42008;52.934;5.884;2023-09-19T07:52:21;19.00;99.90
56137;DHT22;42008;52.934;5.884;2023-09-19T07:54:48;18.60;99.90
56137;DHT22;42008;52.934;5.884;2023-09-19T07:57:15;18.80;99.90
56137;DHT22;42008;52.934;5.884;2023-09-19T07:59:41;20.40;99.90
56137;DHT22;42008;52.934;5.884;2023-09-19T08:02:08;18.60;99.90
56137;DHT22;42008;52.934;5.884;2023-09-19T08:04:35;18.60;99.90
56137;DHT22;42008;52.934;5.884;2023-09-19T08:07:00;18.70;54.60
56137;DHT22;42008;52.934;5.884;2023-09-19T08:09:29;18.50;52.50
56137;DHT22;42008;52.934;5.884;2023-09-19T08:11:58;19.10;95.70
56137;DHT22;42008;52.934;5.884;2023-09-19T08:14:24;19.00;29.40
56137;DHT22;42008;52.934;5.884;2023-09-19T08:16:51;19.00;8.10
56137;DHT22;42008;52.934;5.884;2023-09-19T08:19:17;20.50;1.00
56137;DHT22;42008;52.934;5.884;2023-09-19T08:21:42;19.30;1.00
56137;DHT22;42008;52.934;5.884;2023-09-19T08:24:12;20.50;1.00
56137;DHT22;42008;52.934;5.884;2023-09-19T08:26:39;19.50;1.00
56137;DHT22;42008;52.934;5.884;2023-09-19T08:29:05;21.20;1.00
56137;DHT22;42008;52.934;5.884;2023-09-19T08:31:37;19.40;1.00
56137;DHT22;42008;52.934;5.884;2023-09-19T08:34:02;20.80;1.00
56137;DHT22;42008;52.934;5.884;2023-09-19T08:36:28;20.70;1.00
56137;DHT22;42008;52.934;5.884;2023-09-19T08:38:53;20.90;1.00
56137;DHT22;42008;52.934;5.884;2023-09-19T08:41:19;19.90;1.00
56137;DHT22;42008;52.934;5.884;2023-09-19T08:43:45;21.20;99.90
56137;DHT22;42008;52.934;5.884;2023-09-19T08:46:15;20.10;99.90
56137;DHT22;42008;52.934;5.884;2023-09-19T08:49:03;21.10;99.90
56137;DHT22;42008;52.934;5.884;2023-09-19T08:51:43;21.10;99.90
56137;DHT22;42008;52.934;5.884;2023-09-19T08:56:46;21.20;99.90
56137;DHT22;42008;52.934;5.884;2023-09-19T08:59:13;21.30;99.90
56137;DHT22;42008;52.934;5.884;2023-09-19T09:01:40;21.40;99.90
56137;DHT22;42008;52.934;5.884;2023-09-19T09:04:08;21.40;99.90
56137;DHT22;42008;52.934;5.884;2023-09-19T09:06:35;21.90;50.40
56137;DHT22;42008;52.934;5.884;2023-09-19T09:09:02;21.20;1.00
56137;DHT22;42008;52.934;5.884;2023-09-19T09:11:28;20.70;1.00
56137;DHT22;42008;52.934;5.884;2023-09-19T09:13:54;20.60;99.90
56137;DHT22;42008;52.934;5.884;2023-09-19T09:16:19;20.50;1.00
56137;DHT22;42008;52.934;5.884;2023-09-19T09:18:46;20.90;99.90
56137;DHT22;42008;52.934;5.884;2023-09-19T09:21:12;20.70;99.90
56137;DHT22;42008;52.934;5.884;2023-09-19T09:23:40;21.30;99.90
56137;DHT22;42008;52.934;5.884;2023-09-19T09:26:05;21.20;99.90
56137;DHT22;42008;52.934;5.884;2023-09-19T09:28:34;20.90;65.80
56137;DHT22;42008;52.934;5.884;2023-09-19T09:31:01;21.00;99.90
56137;DHT22;42008;52.934;5.884;2023-09-19T09:33:34;21.20;99.90
56137;DHT22;42008;52.934;5.884;2023-09-19T09:36:01;21.60;1.00
56137;DHT22;42008;52.934;5.884;2023-09-19T09:38:44;21.40;99.90
56137;DHT22;42008;52.934;5.884;2023-09-19T09:41:11;22.60;99.90
56137;DHT22;42008;52.934;5.884;2023-09-19T09:43:41;21.80;99.90
56137;DHT22;42008;52.934;5.884;2023-09-19T09:46:19;21.60;1.00
56137;DHT22;42008;52.934;5.884;2023-09-19T09:48:58;20.80;94.00
56137;DHT22;42008;52.934;5.884;2023-09-19T09:51:42;21.40;1.00
56137;DHT22;42008;52.934;5.884;2023-09-19T09:54:14;21.50;99.90
56137;DHT22;42008;52.934;5.884;2023-09-19T09:56:57;21.10;1.00
56137;DHT22;42008;52.934;5.884;2023-09-19T09:59:50;21.60;1.00
56137;DHT22;42008;52.934;5.884;2023-09-19T10:02:18;21.40;99.90
56137;DHT22;42008;52.934;5.884;2023-09-19T10:04:54;21.40;14.60
56137;DHT22;42008;52.934;5.884;2023-09-19T10:07:29;21.20;99.90
56137;DHT22;42008;52.934;5.884;2023-09-19T10:10:04;21.70;99.90
56137;DHT22;42008;52.934;5.884;2023-09-19T10:12:43;20.90;99.90
56137;DHT22;42008;52.934;5.884;2023-09-19T10:15:11;20.80;99.90
56137;DHT22;42008;52.934;5.884;2023-09-19T10:17:38;21.10;52.00
56137;DHT22;42008;52.934;5.884;2023-09-19T10:20:05;21.30;99.90
56137;DHT22;42008;52.934;5.884;2023-09-19T10:22:43;20.90;29.80
56137;DHT22;42008;52.934;5.884;2023-09-19T10:25:11;21.30;99.90
56137;DHT22;42008;52.934;5.884;2023-09-19T10:27:38;21.30;1.00
56137;DHT22;42008;52.934;5.884;2023-09-19T10:30:08;21.30;78.00
56137;DHT22;42008;52.934;5.884;2023-09-19T10:32:35;20.80;1.00
56137;DHT22;42008;52.934;5.884;2023-09-19T10:35:02;22.20;99.90
56137;DHT22;42008;52.934;5.884;2023-09-19T10:37:32;20.80;1.00
56137;DHT22;42008;52.934;5.884;2023-09-19T10:39:59;21.20;1.00
56137;DHT22;42008;52.934;5.884;2023-09-19T10:42:25;21.10;1.00
56137;DHT22;42008;52.934;5.884;2023-09-19T10:44:54;21.20;1.00
56137;DHT22;42008;52.934;5.884;2023-09-19T10:47:25;21.40;1.00
56137;DHT22;42008;52.934;5.884;2023-09-19T10:49:51;20.50;99.90
56137;DHT22;42008;52.934;5.884;2023-09-19T10:52:21;21.10;1.00
56137;DHT22;42008;52.934;5.884;2023-09-19T10:54:50;20.50;1.00
56137;DHT22;42008;52.934;5.884;2023-09-19T10:57:23;20.40;1.00
56137;DHT22;42008;52.934;5.884;2023-09-19T11:00:05;22.00;99.90
56137;DHT22;42008;52.934;5.884;2023-09-19T11:05:40;21.60;25.60
56137;DHT22;42008;52.934;5.884;2023-09-19T11:08:09;22.00;99.90
56137;DHT22;42008;52.934;5.884;2023-09-19T11:10:50;22.70;99.90
56137;DHT22;42008;52.934;5.884;2023-09-19T11:13:31;21.70;99.90
56137;DHT22;42008;52.934;5.884;2023-09-19T11:26:43;21.30;99.90
56137;DHT22;42008;52.934;5.884;2023-09-19T11:29:25;21.50;99.90
56137;DHT22;42008;52.934;5.884;2023-09-19T11:31:51;20.50;99.90
56137;DHT22;42008;52.934;5.884;2023-09-19T11:40:08;20.70;99.90
56137;DHT22;42008;52.934;5.884;2023-09-19T11:42:48;22.20;1.00
56137;DHT22;42008;52.934;5.884;2023-09-19T11:48:23;20.80;1.00
56137;DHT22;42008;52.934;5.884;2023-09-19T11:50:50;21.40;99.90
56137;DHT22;42008;52.934;5.884;2023-09-19T11:53:17;21.10;99.90
56137;DHT22;42008;52.934;5.884;2023-09-19T11:55:43;21.10;1.00
56137;DHT22;42008;52.934;5.884;2023-09-19T11:58:09;21.50;1.00
56137;DHT22;42008;52.934;5.884;2023-09-19T12:00:38;21.00;1.00
56137;DHT22;42008;52.934;5.884;2023-09-19T12:03:09;21.30;99.90
56137;DHT22;42008;52.934;5.884;2023-09-19T12:05:36;21.20;1.00
56137;DHT22;42008;52.934;5.884;2023-09-19T12:08:07;21.40;1.00
56137;DHT22;42008;52.934;5.884;2023-09-19T12:10:47;20.90;99.90
56137;DHT22;42008;52.934;5.884;2023-09-19T12:13:19;22.30;1.00
56137;DHT22;42008;52.934;5.884;2023-09-19T12:15:46;21.50;1.00
56137;DHT22;42008;52.934;5.884;2023-09-19T12:18:26;21.80;1.00
56137;DHT22;42008;52.934;5.884;2023-09-19T12:20:53;21.70;1.00
56137;DHT22;42008;52.934;5.884;2023-09-19T12:23:20;21.20;86.40
56137;DHT22;42008;52.934;5.884;2023-09-19T12:25:46;21.50;1.00
56137;DHT22;42008;52.934;5.884;2023-09-19T12:28:16;21.80;1.00
56137;DHT22;42008;52.934;5.884;2023-09-19T12:30:47;21.00;99.90
56137;DHT22;42008;52.934;5.884;2023-09-19T12:33:19;21.40;99.90
56137;DHT22;42008;52.934;5.884;2023-09-19T12:35:46;21.80;99.90
56137;DHT22;42008;52.934;5.884;2023-09-19T12:38:28;21.70;99.90
56137;DHT22;42008;52.934;5.884;2023-09-19T12:40:55;20.80;99.90
56137;DHT22;42008;52.934;5.884;2023-09-19T12:43:22;21.60;1.00
56137;DHT22;42008;52.934;5.884;2023-09-19T12:45:48;21.40;99.90
56137;DHT22;42008;52.934;5.884;2023-09-19T12:48:22;21.40;99.90
56137;DHT22;42008;52.934;5.884;2023-09-19T12:51:08;22.50;99.90
56137;DHT22;42008;52.934;5.884;2023-09-19T12:56:08;20.80;31.40
56137;DHT22;42008;52.934;5.884;2023-09-19T12:58:54;21.50;99.90
56137;DHT22;42008;52.934;5.884;2023-09-19T13:01:21;20.70;99.90
56137;DHT22;42008;52.934;5.884;2023-09-19T13:04:21;21.60;1.00
56137;DHT22;42008;52.934;5.884;2023-09-19T13:06:54;20.80;1.00
56137;DHT22;42008;52.934;5.884;2023-09-19T13:09:22;21.70;99.90
56137;DHT22;42008;52.934;5.884;2023-09-19T13:11:48;21.50;99.90
56137;DHT22;42008;52.934;5.884;2023-09-19T13:14:23;21.20;99.90
56137;DHT22;42008;52.934;5.884;2023-09-19T13:19:39;20.70;99.90
56137;DHT22;42008;52.934;5.884;2023-09-19T13:22:41;21.20;1.00
56137;DHT22;42008;52.934;5.884;2023-09-19T13:25:15;21.10;1.00
56137;DHT22;42008;52.934;5.884;2023-09-19T13:28:01;21.70;99.90
56137;DHT22;42008;52.934;5.884;2023-09-19T13:30:30;21.40;89.70
56137;DHT22;42008;52.934;5.884;2023-09-19T13:33:08;21.70;99.90
56137;DHT22;42008;52.934;5.884;2023-09-19T13:35:35;22.20;99.90
56137;DHT22;42008;52.934;5.884;2023-09-19T13:38:02;21.40;99.90
56137;DHT22;42008;52.934;5.884;2023-09-19T13:40:27;22.50;99.90
56137;DHT22;42008;52.934;5.884;2023-09-19T13:42:56;21.00;99.90
56137;DHT22;42008;52.934;5.884;2023-09-19T13:45:22;22.00;99.90
56137;DHT22;42008;52.934;5.884;2023-09-19T13:47:50;21.40;99.90
56137;DHT22;42008;52.934;5.884;2023-09-19T13:50:15;21.10;99.90
56137;DHT22;42008;52.934;5.884;2023-09-19T13:52:42;21.30;99.90
56137;DHT22;42008;52.934;5.884;2023-09-19T13:55:08;21.20;99.90
56137;DHT22;42008;52.934;5.884;2023-09-19T13:57:34;20.80;99.90
56137;DHT22;42008;52.934;5.884;2023-09-19T13:59:59;21.30;99.90
56137;DHT22;42008;52.934;5.884;2023-09-19T14:02:25;22.60;1.00
56137;DHT22;42008;52.934;5.884;2023-09-19T14:04:51;21.80;99.90
56137;DHT22;42008;52.934;5.884;2023-09-19T14:07:17;21.70;1.00
56137;DHT22;42008;52.934;5.884;2023-09-19T14:09:44;21.80;1.00
56137;DHT22;42008;52.934;5.884;2023-09-19T14:12:09;21.40;99.90
56137;DHT22;42008;52.934;5.884;2023-09-19T14:14:35;21.70;99.90
56137;DHT22;42008;52.934;5.884;2023-09-19T14:17:03;21.50;69.20
56137;DHT22;42008;52.934;5.884;2023-09-19T14:19:28;22.60;66.30
56137;DHT22;42008;52.934;5.884;2023-09-19T14:21:54;21.10;1.00
56137;DHT22;42008;52.934;5.884;2023-09-19T14:24:21;21.30;99.90
56137;DHT22;42008;52.934;5.884;2023-09-19T14:26:48;23.20;99.90
56137;DHT22;42008;52.934;5.884;2023-09-19T14:29:15;21.50;99.90
56137;DHT22;42008;52.934;5.884;2023-09-19T14:31:40;21.30;1.00
56137;DHT22;42008;52.934;5.884;2023-09-19T14:34:06;21.50;1.00
56137;DHT22;42008;52.934;5.884;2023-09-19T14:36:32;21.10;99.90
56137;DHT22;42008;52.934;5.884;2023-09-19T14:38:59;21.10;1.00
56137;DHT22;42008;52.934;5.884;2023-09-19T14:41:25;22.10;1.00
56137;DHT22;42008;52.934;5.884;2023-09-19T14:43:54;21.70;1.00
56137;DHT22;42008;52.934;5.884;2023-09-19T14:46:21;21.10;1.00
56137;DHT22;42008;52.934;5.884;2023-09-19T14:48:47;22.30;1.00
56137;DHT22;42008;52.934;5.884;2023-09-19T14:51:13;21.40;1.00
56137;DHT22;42008;52.934;5.884;2023-09-19T14:53:42;21.40;1.00
56137;DHT22;42008;52.934;5.884;2023-09-19T14:56:09;22.00;1.00
56137;DHT22;42008;52.934;5.884;2023-09-19T14:58:35;21.20;20.80
56137;DHT22;42008;52.934;5.884;2023-09-19T15:01:07;21.50;92.60
56137;DHT22;42008;52.934;5.884;2023-09-19T15:03:34;20.80;52.80
56137;DHT22;42008;52.934;5.884;2023-09-19T15:06:05;21.80;1.00
56137;DHT22;42008;52.934;5.884;2023-09-19T15:08:32;20.80;1.00
56137;DHT22;42008;52.934;5.884;2023-09-19T15:11:02;21.30;32.10
56137;DHT22;42008;52.934;5.884;2023-09-19T15:13:33;20.60;99.90
56137;DHT22;42008;52.934;5.884;2023-09-19T15:16:03;21.00;99.90
56137;DHT22;42008;52.934;5.884;2023-09-19T15:18:29;20.50;99.90
56137;DHT22;42008;52.934;5.884;2023-09-19T15:21:05;20.80;1.00
56137;DHT22;42008;52.934;5.884;2023-09-19T15:23:31;20.40;1.00
56137;DHT22;42008;52.934;5.884;2023-09-19T15:25:59;20.30;1.00
56137;DHT22;42008;52.934;5.884;2023-09-19T15:28:25;20.80;1.00
56137;DHT22;42008;52.934;5.884;2023-09-19T15:30:56;21.00;1.00
56137;DHT22;42008;52.934;5.884;2023-09-19T15:33:22;20.70;99.90
56137;DHT22;42008;52.934;5.884;2023-09-19T15:35:47;20.30;99.90
56137;DHT22;42008;52.934;5.884;2023-09-19T15:38:14;20.60;99.90
56137;DHT22;42008;52.934;5.884;2023-09-19T15:40:46;20.80;99.90
56137;DHT22;42008;52.934;5.884;2023-09-19T15:43:12;19.50;99.90
56137;DHT22;42008;52.934;5.884;2023-09-19T15:45:38;20.70;99.90
56137;DHT22;42008;52.934;5.884;2023-09-19T15:48:04;19.20;99.90
56137;DHT22;42008;52.934;5.884;2023-09-19T15:50:30;20.20;99.90
56137;DHT22;42008;52.934;5.884;2023-09-19T15:52:56;20.10;99.90
56137;DHT22;42008;52.934;5.884;2023-09-19T15:55:21;20.40;99.90
56137;DHT22;42008;52.934;5.884;2023-09-19T15:57:47;20.50;99.90
56137;DHT22;42008;52.934;5.884;2023-09-19T16:00:13;20.50;99.90
56137;DHT22;42008;52.934;5.884;2023-09-19T16:02:42;20.00;99.90
56137;DHT22;42008;52.934;5.884;2023-09-19T16:05:09;18.90;99.90
56137;DHT22;42008;52.934;5.884;2023-09-19T16:07:35;18.90;99.90
56137;DHT22;42008;52.934;5.884;2023-09-19T16:10:02;19.90;99.90
56137;DHT22;42008;52.934;5.884;2023-09-19T16:12:28;19.50;99.90
56137;DHT22;42008;52.934;5.884;2023-09-19T16:14:53;20.10;99.90
56137;DHT22;42008;52.934;5.884;2023-09-19T16:17:19;20.40;99.90
56137;DHT22;42008;52.934;5.884;2023-09-19T16:19:44;18.70;99.90
56137;DHT22;42008;52.934;5.884;2023-09-19T16:22:10;20.50;99.90
56137;DHT22;42008;52.934;5.884;2023-09-19T16:24:35;19.10;99.90
56137;DHT22;42008;52.934;5.884;2023-09-19T16:27:01;20.90;99.90
56137;DHT22;42008;52.934;5.884;2023-09-19T16:29:27;19.70;99.90